Deer Meadows, Washington
Current Conditions -  °F | °C
As of 7:58 PM on Monday 22 Dec 2014 (Local Time) from KSKA Reporting Station
Broken Clouds Broken Clouds  
Wind Chill: 27°   Ceiling: 15000
Heat Index: 33°   Visibility: 10mi
Dew Point: 27°   Wind: 6mph
Humidity: 79%   Direction: 250°WSW
Pressure: 30.29"   Gusts: NA
Location:  47.7035°N, 118.192°W
Report Text: KSKA 230358Z AUTO 25005KT 10SM BKN150 00/M03 A3029 RMK AO2 UPB14E23 SLP284 P0000 T00041028
Loading
Personal Weather Stations






























Interactive Weather Map New forecast layout! Learn more

10-Day Weather Forecast

Advertisements
Track Severe Weather on mobile